createdAt,value
2019-01-20T00:00:29.573Z,95.60
2019-01-20T00:02:59.763Z,95.50
2019-01-20T00:05:27.255Z,95.60
2019-01-20T00:07:54.419Z,95.70
2019-01-20T00:10:21.401Z,95.70
2019-01-20T00:12:48.193Z,95.60
2019-01-20T00:15:15.479Z,95.60
2019-01-20T00:17:42.367Z,95.60
2019-01-20T00:20:09.825Z,95.60
2019-01-20T00:22:36.824Z,95.60
2019-01-20T00:25:04.910Z,95.50
2019-01-20T00:27:31.874Z,95.50
2019-01-20T00:29:58.815Z,95.60
2019-01-20T00:32:25.879Z,95.60
2019-01-20T00:34:52.669Z,95.60
2019-01-20T00:37:19.755Z,95.80
2019-01-20T00:39:46.603Z,95.70
2019-01-20T00:42:13.367Z,95.80
2019-01-20T00:44:40.144Z,95.80
2019-01-20T00:47:06.974Z,95.80
2019-01-20T00:49:33.699Z,95.80
2019-01-20T00:52:02.270Z,95.70
2019-01-20T00:54:29.478Z,95.70
2019-01-20T00:56:56.377Z,95.50
2019-01-20T00:59:23.309Z,95.60
2019-01-20T01:01:50.059Z,95.60
2019-01-20T01:04:17.064Z,95.70
2019-01-20T01:06:44.043Z,95.80
2019-01-20T01:09:10.909Z,96.00
2019-01-20T01:11:37.843Z,96.00
2019-01-20T01:14:04.818Z,96.10
2019-01-20T01:16:31.675Z,96.00
2019-01-20T01:18:58.553Z,96.00
2019-01-20T01:21:25.411Z,96.00
2019-01-20T01:23:52.291Z,95.80
2019-01-20T01:26:19.003Z,95.70
2019-01-20T01:28:45.870Z,95.50
2019-01-20T01:31:12.589Z,95.50
2019-01-20T01:33:39.325Z,95.50
2019-01-20T01:36:06.283Z,95.60
2019-01-20T01:38:33.099Z,95.60
2019-01-20T01:41:00.086Z,95.60
2019-01-20T01:44:23.903Z,95.60
2019-01-20T01:46:50.811Z,95.70
2019-01-20T01:49:17.675Z,96.00
2019-01-20T01:51:44.395Z,95.70
2019-01-20T01:54:11.119Z,95.70
2019-01-20T01:56:37.874Z,95.70
2019-01-20T01:59:04.843Z,95.80
2019-01-20T02:01:31.699Z,95.70
2019-01-20T02:03:58.681Z,95.80
2019-01-20T02:06:25.383Z,95.70
2019-01-20T02:08:52.247Z,95.70
2019-01-20T02:11:19.123Z,95.80
2019-01-20T02:13:45.967Z,95.70
2019-01-20T02:16:12.903Z,95.80
2019-01-20T02:18:39.739Z,95.70
2019-01-20T02:21:06.715Z,95.70
2019-01-20T02:23:34.203Z,95.70
2019-01-20T02:26:09.016Z,95.70
2019-01-20T02:28:35.932Z,95.70
2019-01-20T02:31:02.927Z,95.70
2019-01-20T02:33:29.752Z,95.80
2019-01-20T02:35:56.506Z,95.80
2019-01-20T02:38:23.287Z,95.70
2019-01-20T02:40:50.151Z,95.70
2019-01-20T02:43:20.703Z,96.00
2019-01-20T02:45:48.870Z,95.80
2019-01-20T02:48:18.247Z,95.80
2019-01-20T02:50:47.681Z,95.80
2019-01-20T02:53:22.475Z,95.50
2019-01-20T02:55:49.367Z,95.80
2019-01-20T02:58:16.239Z,95.80
2019-01-20T03:00:51.333Z,95.90
2019-01-20T03:03:18.909Z,95.90
2019-01-20T03:05:45.844Z,96.30
2019-01-20T03:08:12.735Z,96.10
2019-01-20T03:10:39.709Z,96.20
2019-01-20T03:13:06.564Z,96.30
2019-01-20T03:15:33.399Z,96.30
2019-01-20T03:18:00.306Z,96.30
2019-01-20T03:20:27.296Z,96.40
2019-01-20T03:22:57.253Z,96.40
2019-01-20T03:25:24.176Z,96.40
2019-01-20T03:27:52.243Z,96.50
2019-01-20T03:30:22.060Z,96.50
2019-01-20T03:32:49.160Z,96.50
2019-01-20T03:35:20.440Z,96.50
2019-01-20T03:37:47.383Z,96.60
2019-01-20T03:40:15.327Z,96.60
2019-01-20T03:42:42.294Z,96.50
2019-01-20T03:45:11.126Z,96.50
2019-01-20T03:47:40.971Z,96.60
2019-01-20T03:50:08.779Z,96.50
2019-01-20T03:52:35.516Z,96.50
2019-01-20T03:55:03.321Z,96.60
2019-01-20T03:57:30.181Z,96.50
2019-01-20T03:59:57.142Z,96.60
2019-01-20T04:02:24.815Z,96.70
2019-01-20T04:04:51.547Z,96.70
2019-01-20T04:07:18.404Z,96.70
2019-01-20T04:09:45.234Z,96.70
2019-01-20T04:12:20.297Z,96.80
2019-01-20T04:14:40.887Z,96.80
2019-01-20T04:17:07.755Z,96.80
2019-01-20T04:19:34.743Z,96.80
2019-01-20T04:22:01.575Z,96.80
2019-01-20T04:24:28.421Z,96.90
2019-01-20T04:26:55.167Z,96.90
2019-01-20T04:29:21.867Z,96.90
2019-01-20T04:31:48.584Z,96.90
2019-01-20T04:34:15.343Z,96.80
2019-01-20T04:36:42.352Z,96.90
2019-01-20T04:39:09.316Z,97.00
2019-01-20T04:41:37.480Z,97.00
2019-01-20T04:44:04.320Z,97.00
2019-01-20T04:46:31.138Z,97.20
2019-01-20T04:48:58.131Z,97.20
2019-01-20T04:51:25.002Z,97.30
2019-01-20T04:53:52.187Z,97.30
2019-01-20T04:56:19.175Z,97.30
2019-01-20T04:58:45.928Z,97.20
2019-01-20T05:01:12.659Z,97.30
2019-01-20T05:03:45.739Z,97.30
2019-01-20T05:06:12.840Z,97.40
2019-01-20T05:08:39.900Z,97.30
2019-01-20T05:11:06.977Z,97.40
2019-01-20T05:13:34.303Z,97.40
2019-01-20T05:16:01.268Z,97.50
2019-01-20T05:18:28.844Z,97.60
2019-01-20T05:20:57.477Z,97.60
2019-01-20T05:23:24.394Z,97.70
2019-01-20T05:25:51.300Z,97.60
2019-01-20T05:28:18.463Z,97.80
2019-01-20T05:30:45.394Z,97.80
2019-01-20T05:33:12.262Z,97.90
2019-01-20T05:35:39.083Z,97.90
2019-01-20T05:38:05.993Z,98.00
2019-01-20T05:40:32.802Z,98.00
2019-01-20T05:42:59.816Z,98.10
2019-01-20T05:45:26.650Z,98.10
2019-01-20T05:47:53.666Z,98.10
2019-01-20T05:50:20.750Z,98.00
2019-01-20T05:52:47.760Z,98.10
2019-01-20T05:55:14.840Z,98.10
2019-01-20T05:57:41.775Z,98.10
2019-01-20T06:00:17.427Z,98.10
2019-01-20T06:02:44.634Z,98.00
2019-01-20T06:05:11.618Z,97.90
2019-01-20T06:07:38.474Z,98.00
2019-01-20T06:10:06.655Z,98.00
2019-01-20T06:12:33.542Z,97.90
2019-01-20T06:15:00.523Z,98.00
2019-01-20T06:17:27.347Z,98.10
2019-01-20T06:19:54.061Z,98.00
2019-01-20T06:22:20.938Z,98.00
2019-01-20T06:24:47.692Z,98.20
2019-01-20T06:27:14.843Z,98.20
2019-01-20T06:29:41.731Z,98.20
2019-01-20T06:32:08.594Z,98.30
2019-01-20T06:34:35.451Z,98.50
2019-01-20T06:37:02.304Z,98.30
2019-01-20T06:39:29.523Z,98.30
2019-01-20T06:41:56.343Z,98.30
2019-01-20T06:44:23.191Z,98.40
2019-01-20T06:46:49.951Z,98.70
2019-01-20T06:49:16.690Z,98.40
2019-01-20T06:51:43.671Z,98.50
2019-01-20T06:54:10.392Z,98.40
2019-01-20T06:56:37.122Z,98.40
2019-01-20T06:59:03.863Z,98.50
2019-01-20T07:01:30.695Z,98.50
2019-01-20T07:03:57.691Z,98.50
2019-01-20T07:06:24.538Z,98.60
2019-01-20T07:08:51.311Z,98.60
2019-01-20T07:11:18.055Z,98.60
2019-01-20T07:13:46.973Z,98.70
2019-01-20T07:16:13.855Z,98.70
2019-01-20T07:18:45.247Z,98.90
2019-01-20T07:21:15.145Z,98.90
2019-01-20T07:23:42.515Z,99.20
2019-01-20T07:26:09.410Z,98.90
2019-01-20T07:28:39.752Z,99.10
2019-01-20T07:31:09.264Z,98.80
2019-01-20T07:33:36.367Z,98.70
2019-01-20T07:36:07.335Z,98.60
2019-01-20T07:38:34.227Z,98.70
2019-01-20T07:41:01.258Z,98.70
2019-01-20T07:43:31.542Z,98.60
2019-01-20T07:46:01.317Z,98.50
2019-01-20T07:48:31.709Z,97.60
2019-01-20T07:50:58.585Z,98.10
2019-01-20T07:53:25.450Z,97.90
2019-01-20T07:55:52.352Z,97.80
2019-01-20T07:58:19.134Z,97.50
2019-01-20T08:00:45.847Z,97.50
2019-01-20T08:03:12.588Z,97.70
2019-01-20T08:05:39.439Z,97.40
2019-01-20T08:08:06.172Z,97.30
2019-01-20T08:10:33.020Z,97.50
2019-01-20T08:12:59.895Z,97.50
2019-01-20T08:15:26.912Z,97.50
2019-01-20T08:17:53.857Z,97.40
2019-01-20T08:20:20.996Z,97.40
2019-01-20T08:22:48.011Z,97.30
2019-01-20T08:25:15.994Z,97.30
2019-01-20T08:27:43.191Z,97.40
2019-01-20T08:30:12.979Z,97.20
2019-01-20T08:32:39.963Z,97.20
2019-01-20T08:35:07.983Z,96.90
2019-01-20T08:37:34.719Z,97.10
2019-01-20T08:40:01.577Z,96.80
2019-01-20T08:42:28.603Z,96.80
2019-01-20T08:44:55.442Z,97.00
2019-01-20T08:47:52.474Z,97.00
2019-01-20T08:50:19.263Z,96.90
2019-01-20T08:52:46.126Z,96.90
2019-01-20T08:55:13.403Z,97.00
2019-01-20T08:57:40.360Z,96.90
2019-01-20T09:00:13.160Z,97.40
2019-01-20T09:02:40.027Z,96.90
2019-01-20T09:05:06.990Z,97.00
2019-01-20T09:07:33.967Z,97.20
2019-01-20T09:10:00.914Z,97.10
2019-01-20T09:12:28.151Z,97.00
2019-01-20T09:14:55.076Z,96.90
2019-01-20T09:17:22.771Z,97.00
2019-01-20T09:19:49.658Z,96.90
2019-01-20T09:22:16.652Z,96.60
2019-01-20T09:24:43.639Z,96.40
2019-01-20T09:27:10.523Z,96.60
2019-01-20T09:29:37.375Z,96.60
2019-01-20T09:32:04.223Z,96.70
2019-01-20T09:34:30.946Z,96.80
2019-01-20T09:36:57.950Z,96.30
2019-01-20T09:39:24.950Z,96.10
2019-01-20T09:41:51.679Z,95.80
2019-01-20T09:44:18.388Z,95.80
2019-01-20T09:46:45.375Z,95.30
2019-01-20T09:49:12.231Z,94.80
2019-01-20T09:51:39.099Z,93.90
2019-01-20T09:54:05.927Z,93.10
2019-01-20T09:56:32.932Z,92.80
2019-01-20T09:58:59.939Z,92.30
2019-01-20T10:01:26.855Z,92.40
2019-01-20T10:03:53.720Z,92.50
2019-01-20T10:06:20.727Z,92.70
2019-01-20T10:08:47.459Z,93.40
2019-01-20T10:11:14.372Z,93.90
2019-01-20T10:13:41.138Z,94.30
2019-01-20T10:16:07.991Z,94.70
2019-01-20T10:18:34.774Z,95.00
2019-01-20T10:21:01.811Z,95.30
2019-01-20T10:23:28.639Z,95.10
2019-01-20T10:25:55.393Z,94.90
2019-01-20T10:28:25.419Z,94.90
2019-01-20T10:30:52.303Z,95.20
2019-01-20T10:33:19.163Z,95.00
2019-01-20T10:36:05.534Z,95.30
2019-01-20T10:38:37.001Z,95.10
2019-01-20T10:41:01.488Z,95.10
2019-01-20T10:43:28.335Z,95.10
2019-01-20T10:45:55.163Z,95.20
2019-01-20T10:48:22.140Z,95.50
2019-01-20T10:50:49.099Z,95.10
2019-01-20T10:53:15.846Z,95.20
2019-01-20T10:55:42.816Z,95.20
2019-01-20T10:58:09.787Z,95.40
2019-01-20T11:00:38.236Z,95.50
2019-01-20T11:03:05.699Z,95.10
2019-01-20T11:05:32.891Z,94.90
2019-01-20T11:07:59.931Z,94.50
2019-01-20T11:10:26.927Z,94.30
2019-01-20T11:12:53.867Z,94.10
2019-01-20T11:15:20.819Z,93.70
2019-01-20T11:17:47.620Z,93.00
2019-01-20T11:20:14.929Z,92.40
2019-01-20T11:22:41.900Z,92.00
2019-01-20T11:25:14.516Z,91.00
2019-01-20T11:27:41.405Z,88.50
2019-01-20T11:30:09.674Z,86.40
2019-01-20T11:32:42.310Z,84.60
2019-01-20T11:35:08.231Z,82.60
2019-01-20T11:37:35.276Z,80.60
2019-01-20T11:40:02.623Z,78.40
2019-01-20T11:42:29.607Z,77.20
2019-01-20T11:44:56.365Z,76.60
2019-01-20T11:47:23.141Z,73.90
2019-01-20T11:49:49.895Z,73.20
2019-01-20T11:52:16.735Z,69.90
2019-01-20T11:54:43.479Z,69.30
2019-01-20T11:57:10.435Z,67.40
2019-01-20T11:59:37.195Z,64.90
2019-01-20T12:02:04.279Z,64.20
2019-01-20T12:04:31.048Z,63.30
2019-01-20T12:06:57.890Z,62.50
2019-01-20T12:09:24.766Z,61.30
2019-01-20T12:11:51.639Z,60.50
2019-01-20T12:14:24.035Z,61.30
2019-01-20T12:16:47.287Z,62.40
2019-01-20T12:19:14.139Z,63.70
2019-01-20T12:21:40.871Z,65.40
2019-01-20T12:24:07.864Z,65.80
2019-01-20T12:26:34.829Z,64.10
2019-01-20T12:29:01.645Z,62.80
2019-01-20T12:31:28.528Z,61.90
2019-01-20T12:33:55.491Z,60.60
2019-01-20T12:36:22.447Z,59.60
2019-01-20T12:38:49.291Z,59.30
2019-01-20T12:41:16.157Z,60.60
2019-01-20T12:43:43.001Z,60.80
2019-01-20T12:46:09.731Z,60.00
2019-01-20T12:48:36.727Z,60.20
2019-01-20T12:51:03.995Z,60.50
2019-01-20T12:53:30.749Z,60.80
2019-01-20T12:55:57.603Z,61.90
2019-01-20T12:58:24.574Z,62.60
2019-01-20T13:00:51.543Z,61.60
2019-01-20T13:03:18.520Z,62.60
2019-01-20T13:05:45.367Z,63.70
2019-01-20T13:08:12.221Z,63.40
2019-01-20T13:10:39.179Z,62.60
2019-01-20T13:13:06.031Z,63.20
2019-01-20T13:15:33.051Z,62.70
2019-01-20T13:17:59.904Z,62.60
2019-01-20T13:20:27.343Z,64.30
2019-01-20T13:22:54.339Z,64.60
2019-01-20T13:25:23.508Z,64.50
2019-01-20T13:27:50.619Z,63.60
2019-01-20T13:30:22.590Z,65.00
2019-01-20T13:32:49.555Z,66.30
2019-01-20T13:35:17.632Z,67.20
2019-01-20T13:37:49.995Z,66.60
2019-01-20T13:40:20.403Z,66.40
2019-01-20T13:42:47.274Z,67.80
2019-01-20T13:45:14.135Z,68.50
2019-01-20T13:47:41.164Z,67.90
2019-01-20T13:50:10.994Z,67.70
2019-01-20T13:52:37.731Z,67.90
2019-01-20T13:55:06.183Z,68.40
2019-01-20T13:57:32.906Z,68.30
2019-01-20T13:59:59.636Z,69.20
2019-01-20T14:02:26.939Z,68.50
2019-01-20T14:04:53.816Z,69.70
2019-01-20T14:07:20.674Z,70.80
2019-01-20T14:09:47.551Z,72.90
2019-01-20T14:12:14.308Z,74.30
2019-01-20T14:14:41.028Z,75.50
2019-01-20T14:17:07.987Z,75.60
2019-01-20T14:19:34.840Z,75.70
2019-01-20T14:22:03.731Z,77.80
2019-01-20T14:24:30.594Z,80.30
2019-01-20T14:26:57.490Z,82.10
2019-01-20T14:29:24.334Z,84.50
2019-01-20T14:31:51.236Z,85.50
2019-01-20T14:34:18.129Z,87.30
2019-01-20T14:36:44.898Z,88.70
2019-01-20T14:39:12.668Z,89.20
2019-01-20T14:41:39.532Z,91.00
2019-01-20T14:44:06.408Z,90.90
2019-01-20T14:46:33.268Z,90.70
2019-01-20T14:49:00.125Z,91.80
2019-01-20T14:51:27.082Z,91.80
2019-01-20T14:53:54.926Z,91.90
2019-01-20T14:56:21.935Z,91.90
2019-01-20T14:58:49.074Z,92.50
2019-01-20T15:01:15.999Z,92.30
2019-01-20T15:03:42.855Z,92.20
2019-01-20T15:06:09.827Z,92.50
2019-01-20T15:08:36.853Z,92.50
2019-01-20T15:11:03.907Z,92.70
2019-01-20T15:13:30.775Z,92.50
2019-01-20T15:15:57.779Z,92.40
2019-01-20T15:18:24.652Z,92.90
2019-01-20T15:20:51.660Z,93.10
2019-01-20T15:23:18.379Z,92.70
2019-01-20T15:25:45.235Z,92.90
2019-01-20T15:28:12.079Z,93.30
2019-01-20T15:30:39.062Z,93.30
2019-01-20T15:33:06.526Z,93.20
2019-01-20T15:35:33.465Z,93.40
2019-01-20T15:38:00.294Z,93.60
2019-01-20T15:40:27.415Z,94.00
2019-01-20T15:42:54.503Z,93.80
2019-01-20T15:45:21.479Z,94.20
2019-01-20T15:47:48.602Z,93.90
2019-01-20T15:50:18.335Z,94.20
2019-01-20T15:52:45.311Z,94.60
2019-01-20T15:55:12.574Z,94.70
2019-01-20T15:57:39.795Z,94.90
2019-01-20T16:00:09.895Z,95.10
2019-01-20T16:02:36.636Z,95.20
2019-01-20T16:05:04.884Z,95.50
2019-01-20T16:07:31.607Z,95.70
2019-01-20T16:09:58.475Z,95.80
2019-01-20T16:12:25.294Z,95.90
2019-01-20T16:14:52.187Z,96.10
2019-01-20T16:17:19.156Z,96.00
2019-01-20T16:19:46.087Z,96.00
2019-01-20T16:22:12.811Z,96.10
2019-01-20T16:24:39.515Z,96.00
2019-01-20T16:27:06.624Z,96.20
2019-01-20T16:29:35.279Z,96.30
2019-01-20T16:32:02.235Z,96.50
2019-01-20T16:34:29.187Z,96.30
2019-01-20T16:36:56.110Z,96.40
2019-01-20T16:39:22.972Z,96.50
2019-01-20T16:41:49.907Z,96.70
2019-01-20T16:44:16.755Z,96.60
2019-01-20T16:46:43.619Z,96.80
2019-01-20T16:49:10.639Z,96.80
2019-01-20T16:51:37.803Z,97.00
2019-01-20T16:54:04.787Z,97.20
2019-01-20T16:56:31.597Z,97.20
2019-01-20T16:58:58.428Z,97.20
2019-01-20T17:01:25.266Z,97.20
2019-01-20T17:03:52.339Z,97.40
2019-01-20T17:06:19.479Z,97.50
2019-01-20T17:08:46.347Z,97.60
2019-01-20T17:11:13.220Z,97.50
2019-01-20T17:13:40.235Z,97.60
2019-01-20T17:16:07.107Z,97.30
2019-01-20T17:18:34.107Z,97.40
2019-01-20T17:21:01.031Z,97.20
2019-01-20T17:23:28.111Z,97.00
2019-01-20T17:25:55.061Z,97.00
2019-01-20T17:28:21.763Z,97.30
2019-01-20T17:30:48.832Z,97.10
2019-01-20T17:33:15.724Z,97.00
2019-01-20T17:35:42.687Z,97.20
2019-01-20T17:38:09.639Z,97.50
2019-01-20T17:40:36.371Z,97.60
2019-01-20T17:43:04.405Z,97.30
2019-01-20T17:45:33.682Z,97.40
2019-01-20T17:48:00.747Z,97.50
2019-01-20T17:50:33.331Z,97.50
2019-01-20T17:53:00.352Z,97.80
2019-01-20T17:55:27.204Z,97.60
2019-01-20T17:57:54.147Z,97.70
2019-01-20T18:00:26.419Z,97.80
2019-01-20T18:02:53.295Z,97.90
2019-01-20T18:05:22.080Z,97.80
2019-01-20T18:07:49.011Z,97.70
2019-01-20T18:10:16.246Z,97.60
2019-01-20T18:12:43.500Z,97.70
2019-01-20T18:15:12.627Z,97.80
2019-01-20T18:17:39.499Z,97.90
2019-01-20T18:20:09.439Z,98.00
2019-01-20T18:22:36.343Z,98.00
2019-01-20T18:25:04.904Z,98.00
2019-01-20T18:27:31.811Z,97.90
2019-01-20T18:29:58.846Z,98.10
2019-01-20T18:32:25.595Z,98.10
2019-01-20T18:34:55.736Z,98.20
2019-01-20T18:37:22.699Z,98.30
2019-01-20T18:39:49.657Z,98.50
2019-01-20T18:42:16.523Z,98.50
2019-01-20T18:44:43.563Z,98.40
2019-01-20T18:47:17.877Z,98.40
2019-01-20T18:49:44.923Z,98.60
2019-01-20T18:52:13.374Z,98.70
2019-01-20T18:54:40.473Z,98.90
2019-01-20T18:57:07.490Z,98.90
2019-01-20T18:59:34.374Z,99.10
2019-01-20T19:02:01.137Z,99.10
2019-01-20T19:04:28.164Z,99.10
2019-01-20T19:06:55.135Z,99.10
2019-01-20T19:09:22.760Z,99.40
2019-01-20T19:11:49.679Z,99.30
2019-01-20T19:14:16.571Z,99.40
2019-01-20T19:16:43.443Z,99.70
2019-01-20T19:19:10.348Z,99.60
2019-01-20T19:21:37.388Z,99.70
2019-01-20T19:24:04.334Z,99.70
2019-01-20T19:26:31.251Z,99.70
2019-01-20T19:29:02.993Z,99.90
2019-01-20T19:31:27.056Z,99.90
2019-01-20T19:33:53.859Z,99.90
2019-01-20T19:36:20.883Z,99.90
2019-01-20T19:38:47.737Z,99.90
2019-01-20T19:41:15.080Z,99.90
2019-01-20T19:43:42.052Z,99.90
2019-01-20T19:46:15.951Z,99.90
2019-01-20T19:48:37.646Z,99.90
2019-01-20T19:51:04.539Z,99.90
2019-01-20T19:53:31.403Z,99.90
2019-01-20T19:55:58.385Z,99.90
2019-01-20T19:58:25.103Z,99.90
2019-01-20T20:00:51.879Z,99.90
2019-01-20T20:03:18.771Z,99.90
2019-01-20T20:05:45.771Z,99.90
2019-01-20T20:08:12.755Z,99.90
2019-01-20T20:10:39.596Z,99.90
2019-01-20T20:13:06.579Z,99.90
2019-01-20T20:15:33.636Z,99.90
2019-01-20T20:18:00.443Z,99.90
2019-01-20T20:20:27.470Z,99.90
2019-01-20T20:22:54.443Z,99.90
2019-01-20T20:25:22.453Z,99.90
2019-01-20T20:28:08.836Z,99.90
2019-01-20T20:30:36.526Z,99.90
2019-01-20T20:33:03.992Z,99.90
2019-01-20T20:35:30.894Z,99.90
2019-01-20T20:37:57.876Z,99.90
2019-01-20T20:40:24.856Z,99.90
2019-01-20T20:42:51.699Z,99.90
2019-01-20T20:45:20.019Z,99.90
2019-01-20T20:47:47.033Z,99.90
2019-01-20T20:50:15.193Z,99.90
2019-01-20T20:52:46.144Z,99.90
2019-01-20T20:55:11.290Z,99.90
2019-01-20T20:57:38.370Z,99.90
2019-01-20T21:00:09.475Z,99.90
2019-01-20T21:02:36.219Z,99.90
2019-01-20T21:05:03.492Z,99.90
2019-01-20T21:07:30.352Z,99.90
2019-01-20T21:09:57.206Z,99.90
2019-01-20T21:12:24.124Z,99.90
2019-01-20T21:14:50.867Z,99.90
2019-01-20T21:17:17.777Z,99.80
2019-01-20T21:19:44.664Z,99.80
2019-01-20T21:22:11.635Z,99.50
2019-01-20T21:24:38.546Z,99.40
2019-01-20T21:27:05.414Z,99.40
2019-01-20T21:29:33.307Z,99.40
2019-01-20T21:32:00.198Z,99.20
2019-01-20T21:34:27.187Z,99.40
2019-01-20T21:36:53.971Z,99.40
2019-01-20T21:39:21.023Z,99.30
2019-01-20T21:42:07.531Z,99.10
2019-01-20T21:44:34.455Z,99.10
2019-01-20T21:47:01.471Z,99.20
2019-01-20T21:49:28.423Z,99.20
2019-01-20T21:51:55.294Z,99.10
2019-01-20T21:54:23.912Z,99.20
2019-01-20T21:56:50.803Z,99.10
2019-01-20T21:59:20.047Z,99.00
2019-01-20T22:01:47.748Z,99.00
2019-01-20T22:04:14.903Z,99.00
2019-01-20T22:06:41.936Z,99.00
2019-01-20T22:09:08.878Z,99.00
2019-01-20T22:11:35.811Z,99.10
2019-01-20T22:14:02.831Z,99.20
2019-01-20T22:16:29.683Z,99.10
2019-01-20T22:18:56.707Z,99.10
2019-01-20T22:21:23.664Z,99.00
2019-01-20T22:23:50.565Z,99.00
2019-01-20T22:26:20.924Z,98.80
2019-01-20T22:28:48.013Z,98.90
2019-01-20T22:31:15.028Z,98.90
2019-01-20T22:33:42.370Z,99.00
2019-01-20T22:36:09.268Z,98.70
2019-01-20T22:38:36.540Z,99.00
2019-01-20T22:41:03.755Z,99.00
2019-01-20T22:43:30.796Z,99.00
2019-01-20T22:45:57.703Z,98.90
2019-01-20T22:48:24.520Z,99.30
2019-01-20T22:50:52.157Z,98.90
2019-01-20T22:53:22.235Z,98.90
2019-01-20T22:55:48.982Z,98.90
2019-01-20T22:58:15.854Z,99.00
2019-01-20T23:00:54.772Z,99.00
2019-01-20T23:03:22.456Z,98.90
2019-01-20T23:05:51.278Z,98.90
2019-01-20T23:08:19.758Z,98.90
2019-01-20T23:10:47.372Z,98.90
2019-01-20T23:13:15.140Z,98.90
2019-01-20T23:15:42.284Z,99.20
2019-01-20T23:18:09.243Z,99.40
2019-01-20T23:20:36.250Z,99.20
2019-01-20T23:23:12.681Z,99.20
2019-01-20T23:25:37.471Z,99.00
2019-01-20T23:28:04.457Z,99.20
2019-01-20T23:30:36.831Z,99.10
2019-01-20T23:33:04.105Z,99.20
2019-01-20T23:35:36.879Z,99.30
2019-01-20T23:38:07.290Z,99.40
2019-01-20T23:40:34.785Z,99.30
2019-01-20T23:43:02.543Z,99.60
2019-01-20T23:45:29.427Z,99.30
2019-01-20T23:47:56.326Z,99.30
2019-01-20T23:50:23.499Z,99.30
2019-01-20T23:52:50.330Z,99.40
2019-01-20T23:55:17.499Z,99.60
2019-01-20T23:57:44.447Z,99.40
